Rowena, Missouri
Current Conditions -  °F | °C
As of 4:54 PM on Thursday 27 Nov 2014 (Local Time) from KCOU Reporting Station
Overcast Overcast  
Wind Chill:   Ceiling: 6500
Heat Index:   Visibility: 10mi
Dew Point: -5°   Wind: 3mph
Humidity: 66%   Direction: 290°WNW
Pressure: 30.44"   Gusts: NA
Location:  39.2043°N, 92.1568°W
Report Text: KCOU 272254Z 29003KT 10SM OVC065 01/M05 A3044 RMK AO2 SLP317 T00061050
Loading
Personal Weather Stations






























Interactive Weather Map New forecast layout! Learn more

10-Day Weather Forecast

Advertisements
Track Severe Weather on mobile